Buoy 52514

sailwx.info

Track history (hours):
 
Tides and Currents Weather Stations Pressure Air Temp Water Temp Dewpoint Dewpoint Depression Visibility Wind Speed Wind Dir Waves Ship Positions

Drifting buoy 52514

Last reported at 2015-May-23 22:00 UTC. Time now 2015-May-24 05:18 UTC.
Position N 21°31' E 126°11'.

Date/timePositionNaut miles runAvg speedWind from/ knotsBaromVisibWave heightAir tempDewpointWater temp
2015-May-23 22:00N 21°31' E 126°11'9 4.5
2015-May-23 20:00N 21°24' E 126°07'0 0.0
2015-May-23 19:00N 21°24' E 126°07'0 0.0
2015-May-23 18:00N 21°24' E 126°07'1 0.1
2015-May-23 13:00N 21°23' E 126°07'0 0.3
2015-May-23 12:00N 21°23' E 126°07'3 0.7
2015-May-23 08:00N 21°20' E 126°05'10 1.6
2015-May-23 02:00N 21°11' E 126°02'3 0.7
2015-May-22 22:00N 21°09' E 126°03'3 0.7
2015-May-22 18:00N 21°06' E 126°03'11 1.1
2015-May-22 08:00N 20°55' E 126°02'11 1.0
2015-May-21 21:00N 20°44' E 126°02'0 0.4
2015-May-21 20:00N 20°44' E 126°02'1 1.4
2015-May-21 19:00N 20°42' E 126°02'6 0.7
2015-May-21 10:00N 20°36' E 126°01'8 1.0
2015-May-21 02:00N 20°29' E 125°59'1 0.9
2015-May-21 01:00N 20°29' E 126°00'5 0.6
2015-May-20 16:00N 20°24' E 126°02'3 0.8
2015-May-20 13:00N 20°22' E 126°01'5 0.8
2015-May-20 07:00N 20°17' E 126°02'0 0.0
2015-May-20 06:00N 20°17' E 126°02'8 0.8
2015-May-19 20:00N 20°09' E 126°02'1 0.5
2015-May-19 17:00N 20°08' E 126°04'0 0.0
2015-May-19 16:00N 20°08' E 126°04'1 0.4
2015-May-19 13:00N 20°07' E 126°03'3 0.6
2015-May-19 09:00N 20°05' E 126°04'2 0.6
2015-May-19 06:00N 20°03' E 126°05'1 0.4
2015-May-19 04:00N 20°02' E 126°04'3 1.4
2015-May-19 02:00N 19°60' E 126°04'1 0.8
2015-May-19 01:00N 20°00' E 126°03'1 0.8
2015-May-19 00:00N 19°60' E 126°04'2 1.0
2015-May-18 22:00N 19°58' E 126°05'1 0.7
2015-May-18 20:00N 19°57' E 126°06'1 0.5
2015-May-18 18:00N 19°56' E 126°07'0 0.0
2015-May-18 17:00N 19°56' E 126°07'3 0.7
2015-May-18 13:00N 19°54' E 126°07'2 1.1
2015-May-18 11:00N 19°52' E 126°09'2 0.7
2015-May-18 08:00N 19°52' E 126°11'1 0.6
2015-May-18 07:00N 19°52' E 126°12'1 0.8
2015-May-18 06:00N 19°52' E 126°12'1 0.3
2015-May-18 04:00N 19°52' E 126°13'1 0.4
2015-May-18 02:00N 19°51' E 126°13'1 0.3
2015-May-17 22:00N 19°51' E 126°14'0 0.4
2015-May-17 21:00N 19°51' E 126°15'0 0.2
2015-May-17 20:00N 19°51' E 126°15'0 0.3
2015-May-17 19:00N 19°51' E 126°15'5 0.6
2015-May-17 10:00N 19°47' E 126°18'2 0.4
2015-May-17 04:00N 19°46' E 126°21'5 0.8
2015-May-16 22:00N 19°43' E 126°25'4 0.3
2015-May-16 11:00N 19°41' E 126°28'2 0.4
2015-May-16 05:00N 19°41' E 126°31'0 0.0
2015-May-16 04:00N 19°41' E 126°31'1 0.5
2015-May-16 02:00N 19°41' E 126°32'1 0.2
2015-May-15 19:00N 19°42' E 126°31'6 0.6
2015-May-15 08:00N 19°36' E 126°31'3 0.9
2015-May-15 05:00N 19°34' E 126°33'0 0.0
2015-May-15 04:00N 19°34' E 126°33'5 0.9
2015-May-14 22:00N 19°36' E 126°39'2 0.5
2015-May-14 18:00N 19°38' E 126°40'4 0.8
2015-May-14 13:00N 19°37' E 126°36'0 0.0
2015-May-14 12:00N 19°37' E 126°36'5 0.8
2015-May-14 05:00N 19°32' E 126°34'6 1.5
2015-May-14 01:00N 19°29' E 126°40'  
Track history (hours):
 
Tides and Currents Weather Stations Pressure Air Temp Water Temp Dewpoint Dewpoint Depression Visibility Wind Speed Wind Dir Waves Ship Positions

Drifting buoy 52514

Last reported at 2015-May-23 22:00 UTC. Time now 2015-May-24 05:18 UTC.
Position N 21°31' E 126°11'.

Date/timePositionNaut miles runAvg speedWind from/ knotsBaromVisibWave heightAir tempDewpointWater temp
2015-May-23 22:00N 21°31' E 126°11'9 4.5
2015-May-23 20:00N 21°24' E 126°07'0 0.0
2015-May-23 19:00N 21°24' E 126°07'0 0.0
2015-May-23 18:00N 21°24' E 126°07'1 0.1
2015-May-23 13:00N 21°23' E 126°07'0 0.3
2015-May-23 12:00N 21°23' E 126°07'3 0.7
2015-May-23 08:00N 21°20' E 126°05'10 1.6
2015-May-23 02:00N 21°11' E 126°02'3 0.7
2015-May-22 22:00N 21°09' E 126°03'3 0.7
2015-May-22 18:00N 21°06' E 126°03'11 1.1
2015-May-22 08:00N 20°55' E 126°02'11 1.0
2015-May-21 21:00N 20°44' E 126°02'0 0.4
2015-May-21 20:00N 20°44' E 126°02'1 1.4
2015-May-21 19:00N 20°42' E 126°02'6 0.7
2015-May-21 10:00N 20°36' E 126°01'8 1.0
2015-May-21 02:00N 20°29' E 125°59'1 0.9
2015-May-21 01:00N 20°29' E 126°00'5 0.6
2015-May-20 16:00N 20°24' E 126°02'3 0.8
2015-May-20 13:00N 20°22' E 126°01'5 0.8
2015-May-20 07:00N 20°17' E 126°02'0 0.0
2015-May-20 06:00N 20°17' E 126°02'8 0.8
2015-May-19 20:00N 20°09' E 126°02'1 0.5
2015-May-19 17:00N 20°08' E 126°04'0 0.0
2015-May-19 16:00N 20°08' E 126°04'1 0.4
2015-May-19 13:00N 20°07' E 126°03'3 0.6
2015-May-19 09:00N 20°05' E 126°04'2 0.6
2015-May-19 06:00N 20°03' E 126°05'1 0.4
2015-May-19 04:00N 20°02' E 126°04'3 1.4
2015-May-19 02:00N 19°60' E 126°04'1 0.8
2015-May-19 01:00N 20°00' E 126°03'1 0.8
2015-May-19 00:00N 19°60' E 126°04'2 1.0
2015-May-18 22:00N 19°58' E 126°05'1 0.7
2015-May-18 20:00N 19°57' E 126°06'1 0.5
2015-May-18 18:00N 19°56' E 126°07'0 0.0
2015-May-18 17:00N 19°56' E 126°07'3 0.7
2015-May-18 13:00N 19°54' E 126°07'2 1.1
2015-May-18 11:00N 19°52' E 126°09'2 0.7
2015-May-18 08:00N 19°52' E 126°11'1 0.6
2015-May-18 07:00N 19°52' E 126°12'1 0.8
2015-May-18 06:00N 19°52' E 126°12'1 0.3
2015-May-18 04:00N 19°52' E 126°13'1 0.4
2015-May-18 02:00N 19°51' E 126°13'1 0.3
2015-May-17 22:00N 19°51' E 126°14'0 0.4
2015-May-17 21:00N 19°51' E 126°15'0 0.2
2015-May-17 20:00N 19°51' E 126°15'0 0.3
2015-May-17 19:00N 19°51' E 126°15'5 0.6
2015-May-17 10:00N 19°47' E 126°18'2 0.4
2015-May-17 04:00N 19°46' E 126°21'5 0.8
2015-May-16 22:00N 19°43' E 126°25'4 0.3
2015-May-16 11:00N 19°41' E 126°28'2 0.4
2015-May-16 05:00N 19°41' E 126°31'0 0.0
2015-May-16 04:00N 19°41' E 126°31'1 0.5
2015-May-16 02:00N 19°41' E 126°32'1 0.2
2015-May-15 19:00N 19°42' E 126°31'6 0.6
2015-May-15 08:00N 19°36' E 126°31'3 0.9
2015-May-15 05:00N 19°34' E 126°33'0 0.0
2015-May-15 04:00N 19°34' E 126°33'5 0.9
2015-May-14 22:00N 19°36' E 126°39'2 0.5
2015-May-14 18:00N 19°38' E 126°40'4 0.8
2015-May-14 13:00N 19°37' E 126°36'0 0.0
2015-May-14 12:00N 19°37' E 126°36'5 0.8
2015-May-14 05:00N 19°32' E 126°34'6 1.5
2015-May-14 01:00N 19°29' E 126°40'  

Dump ship's entire track history